sensor_id;sensor_type;location;lat;lon;timestamp;pressure;altitude;pressure_sealevel;temperature;humidity
59375;BME280;45172;55.006;73.460;2023-07-13T00:00:20;99576.41;;;25.97;45.83
59375;BME280;45172;55.006;73.460;2023-07-13T00:02:48;99557.13;;;25.87;44.73
59375;BME280;45172;55.006;73.460;2023-07-13T00:05:14;99562.06;;;25.95;45.06
59375;BME280;45172;55.006;73.460;2023-07-13T00:07:40;99562.84;;;25.97;45.63
59375;BME280;45172;55.006;73.460;2023-07-13T00:10:08;99591.81;;;26.27;44.77
59375;BME280;45172;55.006;73.460;2023-07-13T00:12:36;99586.75;;;26.21;44.66
59375;BME280;45172;55.006;73.460;2023-07-13T00:15:11;99575.78;;;26.22;44.56
59375;BME280;45172;55.006;73.460;2023-07-13T00:17:39;99637.09;;;26.56;45.32
59375;BME280;45172;55.006;73.460;2023-07-13T00:20:06;99528.34;;;25.99;45.76
59375;BME280;45172;55.006;73.460;2023-07-13T00:22:33;99537.19;;;26.03;46.26
59375;BME280;45172;55.006;73.460;2023-07-13T00:24:59;99528.84;;;26.06;46.41
59375;BME280;45172;55.006;73.460;2023-07-13T00:27:25;99534.78;;;26.12;44.64
59375;BME280;45172;55.006;73.460;2023-07-13T00:29:58;99566.59;;;26.39;46.09
59375;BME280;45172;55.006;73.460;2023-07-13T00:32:25;99526.94;;;26.22;45.47
59375;BME280;45172;55.006;73.460;2023-07-13T00:34:52;99518.97;;;26.19;44.38
59375;BME280;45172;55.006;73.460;2023-07-13T00:37:19;99559.31;;;26.55;45.15
59375;BME280;45172;55.006;73.460;2023-07-13T00:39:45;99580.53;;;26.77;43.95
59375;BME280;45172;55.006;73.460;2023-07-13T00:42:11;99555.41;;;26.73;46.37
59375;BME280;45172;55.006;73.460;2023-07-13T00:44:37;99624.41;;;27.27;45.99
59375;BME280;45172;55.006;73.460;2023-07-13T00:47:05;99625.53;;;27.38;45.41
59375;BME280;45172;55.006;73.460;2023-07-13T00:49:33;99622.00;;;27.50;43.12
59375;BME280;45172;55.006;73.460;2023-07-13T00:52:08;99624.13;;;27.59;45.93
59375;BME280;45172;55.006;73.460;2023-07-13T00:54:41;99596.38;;;27.54;42.85
59375;BME280;45172;55.006;73.460;2023-07-13T00:57:14;99604.69;;;27.66;45.62
59375;BME280;45172;55.006;73.460;2023-07-13T00:59:44;99632.19;;;27.88;46.37
59375;BME280;45172;55.006;73.460;2023-07-13T01:02:12;99613.88;;;27.90;44.81
59375;BME280;45172;55.006;73.460;2023-07-13T01:04:39;99625.81;;;28.15;44.95
59375;BME280;45172;55.006;73.460;2023-07-13T01:07:07;99522.53;;;27.60;43.82
59375;BME280;45172;55.006;73.460;2023-07-13T01:09:33;99522.91;;;27.82;43.84
59375;BME280;45172;55.006;73.460;2023-07-13T01:12:00;99560.25;;;28.19;43.86
59375;BME280;45172;55.006;73.460;2023-07-13T01:14:27;99586.84;;;28.41;44.20
59375;BME280;45172;55.006;73.460;2023-07-13T01:16:53;99626.16;;;28.63;44.49
59375;BME280;45172;55.006;73.460;2023-07-13T01:19:36;99681.09;;;28.95;42.03
59375;BME280;45172;55.006;73.460;2023-07-13T01:22:05;99662.88;;;28.96;42.18
59375;BME280;45172;55.006;73.460;2023-07-13T01:24:38;99653.72;;;28.84;44.42
59375;BME280;45172;55.006;73.460;2023-07-13T01:27:07;99645.13;;;28.64;44.39
59375;BME280;45172;55.006;73.460;2023-07-13T01:29:36;99646.88;;;28.52;44.83
59375;BME280;45172;55.006;73.460;2023-07-13T01:32:12;99648.28;;;28.45;45.70
59375;BME280;45172;55.006;73.460;2023-07-13T01:34:39;99634.13;;;28.40;45.65
59375;BME280;45172;55.006;73.460;2023-07-13T01:37:09;99629.56;;;28.27;47.00
59375;BME280;45172;55.006;73.460;2023-07-13T01:39:37;99629.00;;;28.22;48.02
59375;BME280;45172;55.006;73.460;2023-07-13T01:42:03;99625.16;;;28.12;46.25
59375;BME280;45172;55.006;73.460;2023-07-13T01:44:29;99623.50;;;27.96;44.86
59375;BME280;45172;55.006;73.460;2023-07-13T01:46:56;99612.56;;;27.83;45.21
59375;BME280;45172;55.006;73.460;2023-07-13T01:49:22;99601.59;;;27.85;47.61
59375;BME280;45172;55.006;73.460;2023-07-13T01:51:48;99576.34;;;27.96;45.77
59375;BME280;45172;55.006;73.460;2023-07-13T01:54:14;99589.25;;;28.33;46.04
59375;BME280;45172;55.006;73.460;2023-07-13T01:56:40;99558.75;;;28.40;44.13
59375;BME280;45172;55.006;73.460;2023-07-13T01:59:08;99574.19;;;28.66;45.83
59375;BME280;45172;55.006;73.460;2023-07-13T02:01:35;99582.97;;;28.95;43.73
59375;BME280;45172;55.006;73.460;2023-07-13T02:04:02;99591.66;;;29.14;43.01
59375;BME280;45172;55.006;73.460;2023-07-13T02:06:28;99590.59;;;29.28;44.06
59375;BME280;45172;55.006;73.460;2023-07-13T02:08:55;99568.94;;;29.13;43.67
59375;BME280;45172;55.006;73.460;2023-07-13T02:11:21;99578.34;;;29.09;44.16
59375;BME280;45172;55.006;73.460;2023-07-13T02:13:47;99585.69;;;28.95;44.28
59375;BME280;45172;55.006;73.460;2023-07-13T02:16:14;99570.78;;;28.88;46.56
59375;BME280;45172;55.006;73.460;2023-07-13T02:18:40;99577.13;;;29.13;45.16
59375;BME280;45172;55.006;73.460;2023-07-13T02:21:06;99570.69;;;29.38;45.08
59375;BME280;45172;55.006;73.460;2023-07-13T02:23:33;99494.13;;;29.17;45.79
59375;BME280;45172;55.006;73.460;2023-07-13T02:26:01;99543.44;;;29.74;42.56
59375;BME280;45172;55.006;73.460;2023-07-13T02:28:28;99527.50;;;29.81;42.65
59375;BME280;45172;55.006;73.460;2023-07-13T02:30:54;99552.03;;;30.17;43.84
59375;BME280;45172;55.006;73.460;2023-07-13T02:33:21;99558.47;;;30.50;43.98
59375;BME280;45172;55.006;73.460;2023-07-13T02:35:47;99525.31;;;30.32;42.26
59375;BME280;45172;55.006;73.460;2023-07-13T02:38:14;99569.16;;;30.76;42.37
59375;BME280;45172;55.006;73.460;2023-07-13T02:40:40;99559.47;;;30.95;40.81
59375;BME280;45172;55.006;73.460;2023-07-13T02:43:06;99562.78;;;31.10;42.57
59375;BME280;45172;55.006;73.460;2023-07-13T02:45:32;99561.03;;;31.20;42.67
59375;BME280;45172;55.006;73.460;2023-07-13T02:47:58;99565.09;;;31.37;43.09
59375;BME280;45172;55.006;73.460;2023-07-13T02:50:25;99536.47;;;31.41;41.59
59375;BME280;45172;55.006;73.460;2023-07-13T02:52:51;99555.41;;;31.66;41.46
59375;BME280;45172;55.006;73.460;2023-07-13T02:55:17;99555.34;;;31.77;39.92
59375;BME280;45172;55.006;73.460;2023-07-13T02:57:43;99536.28;;;31.76;37.87
59375;BME280;45172;55.006;73.460;2023-07-13T03:00:10;99530.50;;;31.69;38.48
59375;BME280;45172;55.006;73.460;2023-07-13T03:02:36;99555.63;;;31.95;38.21
59375;BME280;45172;55.006;73.460;2023-07-13T03:05:03;99554.09;;;32.03;40.40
59375;BME280;45172;55.006;73.460;2023-07-13T03:07:30;99488.97;;;31.64;38.67
59375;BME280;45172;55.006;73.460;2023-07-13T03:09:57;99464.94;;;31.46;37.33
59375;BME280;45172;55.006;73.460;2023-07-13T03:12:24;99478.28;;;31.61;37.48
59375;BME280;45172;55.006;73.460;2023-07-13T03:15:01;99495.72;;;31.81;38.24
59375;BME280;45172;55.006;73.460;2023-07-13T03:17:27;99481.03;;;31.82;38.06
59375;BME280;45172;55.006;73.460;2023-07-13T03:19:53;99501.19;;;32.02;38.76
59375;BME280;45172;55.006;73.460;2023-07-13T03:22:20;99529.88;;;32.29;38.90
59375;BME280;45172;55.006;73.460;2023-07-13T03:24:49;99554.50;;;32.50;37.10
59375;BME280;45172;55.006;73.460;2023-07-13T03:27:17;99473.25;;;32.08;37.17
59375;BME280;45172;55.006;73.460;2023-07-13T03:29:44;99549.63;;;32.54;39.99
59375;BME280;45172;55.006;73.460;2023-07-13T03:32:10;99554.41;;;32.62;39.28
59375;BME280;45172;55.006;73.460;2023-07-13T03:34:36;99546.06;;;32.73;38.65
59375;BME280;45172;55.006;73.460;2023-07-13T03:37:03;99544.97;;;32.86;38.66
59375;BME280;45172;55.006;73.460;2023-07-13T03:39:29;99506.84;;;32.83;38.85
59375;BME280;45172;55.006;73.460;2023-07-13T03:41:55;99540.44;;;33.16;39.77
59375;BME280;45172;55.006;73.460;2023-07-13T03:44:21;99545.06;;;33.25;38.99
59375;BME280;45172;55.006;73.460;2023-07-13T03:46:48;99540.44;;;33.36;37.90
59375;BME280;45172;55.006;73.460;2023-07-13T03:49:14;99553.16;;;33.46;38.23
59375;BME280;45172;55.006;73.460;2023-07-13T03:51:40;99553.47;;;33.53;38.01
59375;BME280;45172;55.006;73.460;2023-07-13T03:54:06;99558.38;;;33.59;37.80
59375;BME280;45172;55.006;73.460;2023-07-13T03:56:32;99567.06;;;33.65;37.72
59375;BME280;45172;55.006;73.460;2023-07-13T03:58:58;99563.56;;;33.72;37.56
59375;BME280;45172;55.006;73.460;2023-07-13T04:01:26;99551.44;;;33.75;35.91
59375;BME280;45172;55.006;73.460;2023-07-13T04:03:53;99555.63;;;33.79;37.79
59375;BME280;45172;55.006;73.460;2023-07-13T04:06:21;99543.19;;;33.85;34.88
59375;BME280;45172;55.006;73.460;2023-07-13T04:08:52;99550.38;;;33.96;35.93
59375;BME280;45172;55.006;73.460;2023-07-13T04:11:19;99542.31;;;34.04;34.61
59375;BME280;45172;55.006;73.460;2023-07-13T04:13:47;99514.13;;;33.92;35.79
59375;BME280;45172;55.006;73.460;2023-07-13T04:16:14;99511.22;;;33.94;35.99
59375;BME280;45172;55.006;73.460;2023-07-13T04:18:41;99534.31;;;34.21;36.60
59375;BME280;45172;55.006;73.460;2023-07-13T04:21:08;99539.63;;;34.32;37.55
59375;BME280;45172;55.006;73.460;2023-07-13T04:23:39;99556.25;;;34.31;34.51
59375;BME280;45172;55.006;73.460;2023-07-13T04:26:07;99547.31;;;34.28;34.79
59375;BME280;45172;55.006;73.460;2023-07-13T04:28:33;99541.81;;;34.28;33.80
59375;BME280;45172;55.006;73.460;2023-07-13T04:31:00;99543.09;;;34.34;35.20
59375;BME280;45172;55.006;73.460;2023-07-13T04:33:27;99541.91;;;34.37;33.58
59375;BME280;45172;55.006;73.460;2023-07-13T04:35:55;99527.69;;;34.51;34.77
59375;BME280;45172;55.006;73.460;2023-07-13T04:38:24;99530.72;;;34.48;32.49
59375;BME280;45172;55.006;73.460;2023-07-13T04:40:51;99541.56;;;34.60;33.50
59375;BME280;45172;55.006;73.460;2023-07-13T04:43:18;99527.81;;;34.60;35.96
59375;BME280;45172;55.006;73.460;2023-07-13T04:45:45;99549.56;;;34.81;35.09
59375;BME280;45172;55.006;73.460;2023-07-13T04:48:12;99502.28;;;34.67;33.38
59375;BME280;45172;55.006;73.460;2023-07-13T04:50:38;99539.75;;;34.96;33.96
59375;BME280;45172;55.006;73.460;2023-07-13T04:53:05;99534.03;;;35.08;35.89
59375;BME280;45172;55.006;73.460;2023-07-13T04:55:31;99546.03;;;35.17;34.40
59375;BME280;45172;55.006;73.460;2023-07-13T04:57:57;99546.91;;;35.17;34.69
59375;BME280;45172;55.006;73.460;2023-07-13T05:00:26;99553.09;;;35.19;33.40
59375;BME280;45172;55.006;73.460;2023-07-13T05:02:55;99548.34;;;35.11;33.98
59375;BME280;45172;55.006;73.460;2023-07-13T05:05:21;99528.44;;;35.00;32.44
59375;BME280;45172;55.006;73.460;2023-07-13T05:07:47;99546.50;;;35.02;30.47
59375;BME280;45172;55.006;73.460;2023-07-13T05:10:14;99545.06;;;35.08;33.11
59375;BME280;45172;55.006;73.460;2023-07-13T05:12:46;99552.53;;;34.88;31.85
59375;BME280;45172;55.006;73.460;2023-07-13T05:15:12;99543.22;;;34.98;31.15
59375;BME280;45172;55.006;73.460;2023-07-13T05:17:39;99539.28;;;35.01;31.23
59375;BME280;45172;55.006;73.460;2023-07-13T05:20:07;99535.34;;;35.14;34.62
59375;BME280;45172;55.006;73.460;2023-07-13T05:22:34;99554.22;;;35.27;30.34
59375;BME280;45172;55.006;73.460;2023-07-13T05:25:05;99509.72;;;35.03;29.86
59375;BME280;45172;55.006;73.460;2023-07-13T05:27:31;99528.81;;;35.33;31.02
59375;BME280;45172;55.006;73.460;2023-07-13T05:29:58;99539.19;;;35.57;32.60
59375;BME280;45172;55.006;73.460;2023-07-13T05:32:24;99532.44;;;35.70;32.53
59375;BME280;45172;55.006;73.460;2023-07-13T05:34:50;99505.13;;;35.58;30.70
59375;BME280;45172;55.006;73.460;2023-07-13T05:37:16;99531.16;;;35.82;31.77
59375;BME280;45172;55.006;73.460;2023-07-13T05:39:45;99539.63;;;35.89;31.24
59375;BME280;45172;55.006;73.460;2023-07-13T05:42:11;99517.53;;;35.81;32.42
59375;BME280;45172;55.006;73.460;2023-07-13T05:44:38;99495.75;;;35.69;29.67
59375;BME280;45172;55.006;73.460;2023-07-13T05:47:04;99479.22;;;35.69;31.38
59375;BME280;45172;55.006;73.460;2023-07-13T05:49:31;99512.81;;;35.99;30.57
59375;BME280;45172;55.006;73.460;2023-07-13T05:51:57;99521.56;;;36.13;32.08
59375;BME280;45172;55.006;73.460;2023-07-13T05:54:23;99516.78;;;36.23;30.42
59375;BME280;45172;55.006;73.460;2023-07-13T05:56:49;99463.78;;;36.03;32.29
59375;BME280;45172;55.006;73.460;2023-07-13T05:59:17;99483.91;;;36.22;33.69
59375;BME280;45172;55.006;73.460;2023-07-13T06:01:44;99471.69;;;36.24;31.27
59375;BME280;45172;55.006;73.460;2023-07-13T06:04:10;99506.44;;;36.52;31.42
59375;BME280;45172;55.006;73.460;2023-07-13T06:06:36;99494.97;;;36.65;30.77
59375;BME280;45172;55.006;73.460;2023-07-13T06:09:03;99499.63;;;36.72;30.14
59375;BME280;45172;55.006;73.460;2023-07-13T06:11:29;99496.03;;;36.80;31.19
59375;BME280;45172;55.006;73.460;2023-07-13T06:13:56;99476.88;;;36.70;28.84
59375;BME280;45172;55.006;73.460;2023-07-13T06:16:22;99479.28;;;36.73;28.26
59375;BME280;45172;55.006;73.460;2023-07-13T06:18:48;99497.78;;;36.90;31.29
59375;BME280;45172;55.006;73.460;2023-07-13T06:21:17;99493.66;;;36.94;30.38
59375;BME280;45172;55.006;73.460;2023-07-13T06:23:45;99488.81;;;36.96;30.28
59375;BME280;45172;55.006;73.460;2023-07-13T06:26:13;99472.44;;;36.94;30.37
59375;BME280;45172;55.006;73.460;2023-07-13T06:28:41;99481.25;;;37.06;31.41
59375;BME280;45172;55.006;73.460;2023-07-13T06:31:08;99489.56;;;37.14;30.76
59375;BME280;45172;55.006;73.460;2023-07-13T06:33:35;99483.22;;;37.22;33.46
59375;BME280;45172;55.006;73.460;2023-07-13T06:36:16;99467.69;;;37.30;30.44
59375;BME280;45172;55.006;73.460;2023-07-13T06:38:42;99475.97;;;37.38;29.55
59375;BME280;45172;55.006;73.460;2023-07-13T06:41:08;99478.72;;;37.46;30.74
59375;BME280;45172;55.006;73.460;2023-07-13T06:43:35;99480.28;;;37.49;31.03
59375;BME280;45172;55.006;73.460;2023-07-13T06:46:01;99458.19;;;37.40;29.55
59375;BME280;45172;55.006;73.460;2023-07-13T06:48:27;99391.09;;;37.07;29.41
59375;BME280;45172;55.006;73.460;2023-07-13T06:50:53;99458.03;;;37.67;30.02
59375;BME280;45172;55.006;73.460;2023-07-13T06:53:20;99461.31;;;37.71;27.87
59375;BME280;45172;55.006;73.460;2023-07-13T06:55:47;99451.97;;;37.72;27.39
59375;BME280;45172;55.006;73.460;2023-07-13T06:58:16;99418.84;;;37.63;29.11
59375;BME280;45172;55.006;73.460;2023-07-13T07:00:42;99454.88;;;37.78;27.54
59375;BME280;45172;55.006;73.460;2023-07-13T07:03:09;99451.06;;;37.88;27.70
59375;BME280;45172;55.006;73.460;2023-07-13T07:05:35;99444.34;;;37.82;27.88
59375;BME280;45172;55.006;73.460;2023-07-13T07:08:01;99416.03;;;37.80;27.92
59375;BME280;45172;55.006;73.460;2023-07-13T07:10:29;99451.53;;;38.08;29.31
59375;BME280;45172;55.006;73.460;2023-07-13T07:12:56;99445.09;;;38.24;29.63
59375;BME280;45172;55.006;73.460;2023-07-13T07:15:22;99449.38;;;38.35;27.23
59375;BME280;45172;55.006;73.460;2023-07-13T07:17:48;99426.38;;;38.34;28.45
59375;BME280;45172;55.006;73.460;2023-07-13T07:20:15;99442.53;;;38.62;28.04
59375;BME280;45172;55.006;73.460;2023-07-13T07:22:41;99446.13;;;38.71;27.00
59375;BME280;45172;55.006;73.460;2023-07-13T07:25:07;99441.59;;;38.70;26.89
59375;BME280;45172;55.006;73.460;2023-07-13T07:27:34;99446.84;;;38.65;28.60
59375;BME280;45172;55.006;73.460;2023-07-13T07:30:00;99443.03;;;38.66;25.83
59375;BME280;45172;55.006;73.460;2023-07-13T07:32:29;99437.75;;;38.80;28.78
59375;BME280;45172;55.006;73.460;2023-07-13T07:34:57;99442.19;;;38.89;24.75
59375;BME280;45172;55.006;73.460;2023-07-13T07:37:23;99429.47;;;38.80;27.06
59375;BME280;45172;55.006;73.460;2023-07-13T07:39:50;99447.34;;;38.92;25.81
59375;BME280;45172;55.006;73.460;2023-07-13T07:42:16;99423.66;;;38.89;24.48
59375;BME280;45172;55.006;73.460;2023-07-13T07:44:42;99439.94;;;39.16;26.12
59375;BME280;45172;55.006;73.460;2023-07-13T07:47:11;99422.34;;;39.09;24.77
59375;BME280;45172;55.006;73.460;2023-07-13T07:49:37;99420.94;;;39.13;26.81
59375;BME280;45172;55.006;73.460;2023-07-13T07:52:04;99442.53;;;39.17;25.64
59375;BME280;45172;55.006;73.460;2023-07-13T07:54:30;99416.78;;;39.09;26.57
59375;BME280;45172;55.006;73.460;2023-07-13T07:56:56;99439.50;;;39.27;25.13
59375;BME280;45172;55.006;73.460;2023-07-13T07:59:22;99429.56;;;39.33;27.21
59375;BME280;45172;55.006;73.460;2023-07-13T08:01:49;99411.06;;;39.34;26.82
59375;BME280;45172;55.006;73.460;2023-07-13T08:04:16;99403.13;;;39.30;26.19
59375;BME280;45172;55.006;73.460;2023-07-13T08:06:43;99411.91;;;39.34;25.31
59375;BME280;45172;55.006;73.460;2023-07-13T08:09:09;99432.59;;;39.47;26.55
59375;BME280;45172;55.006;73.460;2023-07-13T08:11:36;99418.41;;;39.41;26.09
59375;BME280;45172;55.006;73.460;2023-07-13T08:14:02;99426.31;;;39.53;27.78
59375;BME280;45172;55.006;73.460;2023-07-13T08:16:29;99434.56;;;39.38;25.14
59375;BME280;45172;55.006;73.460;2023-07-13T08:18:55;99412.66;;;39.28;25.37
59375;BME280;45172;55.006;73.460;2023-07-13T08:21:21;99424.84;;;39.42;23.78
59375;BME280;45172;55.006;73.460;2023-07-13T08:23:48;99410.63;;;39.45;27.65
59375;BME280;45172;55.006;73.460;2023-07-13T08:26:14;99426.31;;;39.68;25.39
59375;BME280;45172;55.006;73.460;2023-07-13T08:28:41;99426.53;;;39.81;25.75
59375;BME280;45172;55.006;73.460;2023-07-13T08:31:07;99396.81;;;39.75;25.21
59375;BME280;45172;55.006;73.460;2023-07-13T08:33:35;99412.91;;;39.95;26.18
59375;BME280;45172;55.006;73.460;2023-07-13T08:36:03;99404.09;;;40.06;25.73
59375;BME280;45172;55.006;73.460;2023-07-13T08:38:31;99384.50;;;39.93;24.11
59375;BME280;45172;55.006;73.460;2023-07-13T08:40:58;99397.59;;;40.14;26.81
59375;BME280;45172;55.006;73.460;2023-07-13T08:43:29;99404.09;;;40.21;24.23
59375;BME280;45172;55.006;73.460;2023-07-13T08:46:03;99387.38;;;39.99;23.63
59375;BME280;45172;55.006;73.460;2023-07-13T08:48:38;99403.81;;;40.16;22.48
59375;BME280;45172;55.006;73.460;2023-07-13T08:51:39;99407.22;;;40.18;23.77
59375;BME280;45172;55.006;73.460;2023-07-13T08:54:57;99402.94;;;40.31;23.57
59375;BME280;45172;55.006;73.460;2023-07-13T08:57:15;99412.59;;;40.35;22.20
59375;BME280;45172;55.006;73.460;2023-07-13T08:59:43;99381.50;;;40.39;24.99
59375;BME280;45172;55.006;73.460;2023-07-13T09:02:39;99407.28;;;40.55;24.98
59375;BME280;45172;55.006;73.460;2023-07-13T09:05:21;99408.09;;;40.34;24.75
59375;BME280;45172;55.006;73.460;2023-07-13T09:08:01;99412.50;;;40.28;25.74
59375;BME280;45172;55.006;73.460;2023-07-13T09:10:35;99383.34;;;40.17;25.11
59375;BME280;45172;55.006;73.460;2023-07-13T09:15:49;99399.94;;;40.47;26.51
59375;BME280;45172;55.006;73.460;2023-07-13T09:18:32;99401.06;;;40.53;23.17
59375;BME280;45172;55.006;73.460;2023-07-13T09:21:10;99368.78;;;40.45;24.17
59375;BME280;45172;55.006;73.460;2023-07-13T09:23:39;99406.63;;;40.53;21.07
59375;BME280;45172;55.006;73.460;2023-07-13T09:26:16;99382.09;;;40.35;24.30
59375;BME280;45172;55.006;73.460;2023-07-13T09:28:47;99397.47;;;40.37;24.57
59375;BME280;45172;55.006;73.460;2023-07-13T09:31:37;99391.28;;;40.35;25.20
59375;BME280;45172;55.006;73.460;2023-07-13T09:34:10;99386.78;;;40.34;25.71
59375;BME280;45172;55.006;73.460;2023-07-13T09:36:37;99385.34;;;40.23;24.49
59375;BME280;45172;55.006;73.460;2023-07-13T09:39:21;99381.44;;;40.18;23.78
59375;BME280;45172;55.006;73.460;2023-07-13T09:42:19;99373.78;;;40.20;25.13
59375;BME280;45172;55.006;73.460;2023-07-13T09:47:22;99370.53;;;40.16;24.57
59375;BME280;45172;55.006;73.460;2023-07-13T09:50:14;99375.19;;;39.85;24.90
59375;BME280;45172;55.006;73.460;2023-07-13T09:52:48;99364.53;;;39.97;26.04
59375;BME280;45172;55.006;73.460;2023-07-13T09:55:29;99357.16;;;40.05;25.79
59375;BME280;45172;55.006;73.460;2023-07-13T09:57:56;99350.94;;;40.18;25.33
59375;BME280;45172;55.006;73.460;2023-07-13T10:00:26;99350.50;;;40.36;22.63
59375;BME280;45172;55.006;73.460;2023-07-13T10:03:18;99377.00;;;40.38;23.09
59375;BME280;45172;55.006;73.460;2023-07-13T10:05:48;99376.56;;;40.57;24.40
59375;BME280;45172;55.006;73.460;2023-07-13T10:08:23;99371.81;;;40.72;25.01
59375;BME280;45172;55.006;73.460;2023-07-13T10:10:57;99375.06;;;40.76;21.99
59375;BME280;45172;55.006;73.460;2023-07-13T10:13:33;99359.00;;;40.71;20.99
59375;BME280;45172;55.006;73.460;2023-07-13T10:16:04;99356.50;;;40.76;23.40
59375;BME280;45172;55.006;73.460;2023-07-13T10:18:45;99373.56;;;40.95;22.04
59375;BME280;45172;55.006;73.460;2023-07-13T10:21:19;99336.75;;;40.64;22.60
59375;BME280;45172;55.006;73.460;2023-07-13T10:23:53;99362.75;;;40.78;23.39
59375;BME280;45172;55.006;73.460;2023-07-13T10:26:45;99357.63;;;40.60;22.34
59375;BME280;45172;55.006;73.460;2023-07-13T10:29:14;99360.97;;;40.56;22.88
59375;BME280;45172;55.006;73.460;2023-07-13T10:31:44;99358.16;;;40.49;23.89
59375;BME280;45172;55.006;73.460;2023-07-13T10:34:11;99353.91;;;40.53;22.56
59375;BME280;45172;55.006;73.460;2023-07-13T10:36:43;99333.69;;;40.59;20.78
59375;BME280;45172;55.006;73.460;2023-07-13T10:39:16;99312.38;;;40.60;23.82
59375;BME280;45172;55.006;73.460;2023-07-13T10:41:44;99332.38;;;40.77;20.85
59375;BME280;45172;55.006;73.460;2023-07-13T10:44:20;99336.09;;;40.84;21.59
59375;BME280;45172;55.006;73.460;2023-07-13T10:46:48;99281.41;;;40.56;21.75
59375;BME280;45172;55.006;73.460;2023-07-13T10:49:15;99286.72;;;40.58;20.99
59375;BME280;45172;55.006;73.460;2023-07-13T10:51:43;99328.81;;;40.61;21.16
59375;BME280;45172;55.006;73.460;2023-07-13T10:54:34;99333.75;;;40.66;20.53
59375;BME280;45172;55.006;73.460;2023-07-13T10:57:21;99334.34;;;40.61;22.41
59375;BME280;45172;55.006;73.460;2023-07-13T11:00:08;99329.59;;;40.77;22.39
59375;BME280;45172;55.006;73.460;2023-07-13T11:02:35;99292.16;;;40.44;23.36
59375;BME280;45172;55.006;73.460;2023-07-13T11:10:54;99332.97;;;40.50;22.56
59375;BME280;45172;55.006;73.460;2023-07-13T11:16:12;99295.72;;;40.38;24.16
59375;BME280;45172;55.006;73.460;2023-07-13T11:18:39;99324.91;;;40.56;22.84
59375;BME280;45172;55.006;73.460;2023-07-13T11:21:19;99324.78;;;40.42;23.39
59375;BME280;45172;55.006;73.460;2023-07-13T11:23:54;99306.56;;;40.18;22.96
59375;BME280;45172;55.006;73.460;2023-07-13T11:32:01;99316.72;;;40.10;24.13
59375;BME280;45172;55.006;73.460;2023-07-13T11:34:46;99291.66;;;39.52;23.99
59375;BME280;45172;55.006;73.460;2023-07-13T11:37:16;99289.41;;;39.32;23.28
59375;BME280;45172;55.006;73.460;2023-07-13T11:39:46;99285.00;;;39.38;25.36
59375;BME280;45172;55.006;73.460;2023-07-13T11:42:15;99299.75;;;39.53;24.69
59375;BME280;45172;55.006;73.460;2023-07-13T11:44:44;99292.31;;;39.54;25.01
59375;BME280;45172;55.006;73.460;2023-07-13T11:47:17;99298.91;;;39.53;23.62
59375;BME280;45172;55.006;73.460;2023-07-13T11:49:54;99253.59;;;39.15;26.42
59375;BME280;45172;55.006;73.460;2023-07-13T11:52:34;99279.88;;;39.35;25.24
59375;BME280;45172;55.006;73.460;2023-07-13T11:55:03;99291.69;;;39.28;26.88
59375;BME280;45172;55.006;73.460;2023-07-13T11:57:59;99268.28;;;39.16;27.34
59375;BME280;45172;55.006;73.460;2023-07-13T12:00:32;99277.06;;;39.19;24.38
59375;BME280;45172;55.006;73.460;2023-07-13T12:03:00;99285.09;;;39.14;25.25
59375;BME280;45172;55.006;73.460;2023-07-13T12:05:28;99283.25;;;38.68;24.89
59375;BME280;45172;55.006;73.460;2023-07-13T12:07:57;99282.81;;;38.33;25.41
59375;BME280;45172;55.006;73.460;2023-07-13T12:10:25;99281.63;;;37.95;25.21
59375;BME280;45172;55.006;73.460;2023-07-13T12:12:58;99274.72;;;37.51;23.84
59375;BME280;45172;55.006;73.460;2023-07-13T12:15:45;99247.41;;;36.92;25.65
59375;BME280;45172;55.006;73.460;2023-07-13T12:18:22;99276.03;;;36.91;27.21
59375;BME280;45172;55.006;73.460;2023-07-13T12:20:50;99241.91;;;36.50;27.63
59375;BME280;45172;55.006;73.460;2023-07-13T12:23:25;99266.88;;;36.40;27.34
59375;BME280;45172;55.006;73.460;2023-07-13T12:25:54;99248.34;;;36.08;27.34
59375;BME280;45172;55.006;73.460;2023-07-13T12:28:34;99266.91;;;35.89;27.50
59375;BME280;45172;55.006;73.460;2023-07-13T12:31:04;99268.78;;;35.80;28.54
59375;BME280;45172;55.006;73.460;2023-07-13T12:33:31;99260.59;;;35.62;29.89
59375;BME280;45172;55.006;73.460;2023-07-13T12:36:01;99236.53;;;35.29;29.74
59375;BME280;45172;55.006;73.460;2023-07-13T12:38:31;99266.50;;;35.41;29.96
59375;BME280;45172;55.006;73.460;2023-07-13T12:40:58;99258.22;;;35.32;31.44
59375;BME280;45172;55.006;73.460;2023-07-13T12:43:26;99232.97;;;35.10;33.30
59375;BME280;45172;55.006;73.460;2023-07-13T12:46:20;99254.31;;;34.90;32.42
59375;BME280;45172;55.006;73.460;2023-07-13T12:48:51;99247.00;;;34.99;35.07
59375;BME280;45172;55.006;73.460;2023-07-13T12:51:24;99248.31;;;34.95;36.25
59375;BME280;45172;55.006;73.460;2023-07-13T12:53:57;99239.28;;;34.76;33.37
59375;BME280;45172;55.006;73.460;2023-07-13T12:56:27;99244.00;;;34.66;32.43
59375;BME280;45172;55.006;73.460;2023-07-13T12:59:01;99242.94;;;34.59;31.55
59375;BME280;45172;55.006;73.460;2023-07-13T13:01:31;99237.84;;;34.54;31.91
59375;BME280;45172;55.006;73.460;2023-07-13T13:04:01;99215.03;;;34.35;33.45
59375;BME280;45172;55.006;73.460;2023-07-13T13:06:32;99233.50;;;34.43;30.61
59375;BME280;45172;55.006;73.460;2023-07-13T13:08:59;99235.38;;;34.42;31.56
59375;BME280;45172;55.006;73.460;2023-07-13T13:11:27;99220.94;;;34.22;33.14
59375;BME280;45172;55.006;73.460;2023-07-13T13:13:53;99216.59;;;34.20;33.96
59375;BME280;45172;55.006;73.460;2023-07-13T13:19:17;99204.28;;;34.06;35.42
59375;BME280;45172;55.006;73.460;2023-07-13T13:21:47;99188.09;;;34.39;34.23
59375;BME280;45172;55.006;73.460;2023-07-13T13:24:24;99193.13;;;34.62;34.09